Time;durP1;ratioP1;P1;durP2;ratioP2;P2;SDS_P1;SDS_P2;PMS_P1;PMS_P2;Temp;Humidity;BMP_temperature;BMP_pressure;BME280_temperature;BME280_humidity;BME280_pressure;Samples;Min_cycle;Max_cycle;Signal;HPM_P1;HPM_P2
2023/03/05 16:50:51;;;;;;;7.10;4.10;;;7.00;63.00;;;;;;21023978;28;20546;-71
2023/03/05 17:00:53;;;;;;;9.57;4.10;;;6.30;63.00;;;;;;21065848;28;20259;-73
2023/03/05 17:10:55;;;;;;;7.13;3.77;;;6.20;63.50;;;;;;21065170;28;20224;-72
2023/03/05 17:20:56;;;;;;;9.23;3.80;;;6.20;63.90;;;;;;21059359;28;20722;-72
2023/03/05 17:31:00;;;;;;;7.33;3.60;;;6.20;64.00;;;;;;20981378;28;20282;-74
2023/03/05 17:41:01;;;;;;;6.23;3.87;;;6.30;64.30;;;;;;20979330;28;20297;-72
2023/03/05 17:51:05;;;;;;;6.60;3.90;;;6.30;64.60;;;;;;20978852;28;20213;-70
2023/03/05 18:01:07;;;;;;;11.97;4.30;;;6.30;64.90;;;;;;20929877;28;20210;-77
2023/03/05 18:11:09;;;;;;;6.57;4.10;;;;;;;;;;20924858;28;20236;-75
2023/03/05 18:21:11;;;;;;;8.57;4.60;;;6.10;66.60;;;;;;20925314;28;20213;-76
2023/03/05 18:31:13;;;;;;;7.87;4.33;;;6.00;67.00;;;;;;20932099;28;20687;-71
2023/03/05 18:41:23;;;;;;;13.40;6.00;;;6.00;67.00;;;;;;20922469;28;20240;-74
2023/03/05 18:51:28;;;;;;;9.07;5.27;;;6.10;67.20;;;;;;20920063;28;20568;-71
2023/03/05 19:01:30;;;;;;;11.00;5.57;;;6.10;67.50;;;;;;20918061;28;20243;-70
2023/03/05 19:11:32;;;;;;;8.07;4.23;;;6.00;67.80;;;;;;20916157;28;20240;-73
2023/03/05 19:28:31;;;;;;;10.17;4.17;;;6.00;68.20;;;;;;21234296;27;20586;-76
2023/03/05 19:38:32;;;;;;;11.23;5.60;;;6.00;68.40;;;;;;21233008;28;20264;-72
2023/03/05 19:48:36;;;;;;;8.87;5.20;;;5.90;69.10;;;;;;21232806;28;20203;-75
2023/03/05 19:58:41;;;;;;;9.60;5.73;;;5.80;69.50;;;;;;21213885;28;20213;-73
2023/03/05 20:08:43;;;;;;;9.47;6.13;;;5.90;69.90;;;;;;21231291;28;20217;-72
2023/03/05 20:18:51;;;;;;;16.13;7.33;;;5.80;70.70;;;;;;21230345;28;20584;-73
2023/03/05 20:28:54;;;;;;;10.37;6.03;;;5.80;71.30;;;;;;21231005;28;20229;-74
2023/03/05 20:38:56;;;;;;;9.43;5.33;;;6.10;71.70;;;;;;21178531;28;20644;-76
2023/03/05 20:49:00;;;;;;;9.17;4.90;;;5.70;70.80;;;;;;21172016;28;20205;-75
2023/03/05 20:59:05;;;;;;;9.50;4.83;;;5.70;70.40;;;;;;21171181;28;20317;-74
2023/03/05 21:09:06;;;;;;;9.33;4.90;;;5.70;70.40;;;;;;21170386;28;20677;-75
2023/03/05 21:19:08;;;;;;;9.17;5.40;;;5.70;70.40;;;;;;21168901;28;20251;-77
2023/03/05 21:29:10;;;;;;;11.73;5.30;;;5.80;70.70;;;;;;21168511;28;20217;-72
2023/03/05 21:39:11;;;;;;;9.53;5.57;;;5.80;70.70;;;;;;21166867;28;20247;-75
2023/03/05 21:49:13;;;;;;;8.77;4.87;;;5.80;70.80;;;;;;21165973;28;20210;-75
2023/03/05 21:59:15;;;;;;;8.73;4.80;;;5.80;70.90;;;;;;21167953;28;20236;-76
2023/03/05 22:09:17;;;;;;;8.40;4.90;;;5.80;70.80;;;;;;21168016;28;20210;-74
2023/03/05 22:19:19;;;;;;;12.20;5.60;;;5.70;71.10;;;;;;21171366;28;20231;-76
2023/03/05 22:29:21;;;;;;;8.63;5.30;;;5.70;71.40;;;;;;21188922;28;20778;-73
2023/03/05 22:39:23;;;;;;;7.40;4.97;;;5.70;71.40;;;;;;21167080;28;20256;-73
2023/03/05 22:49:24;;;;;;;10.03;5.03;;;5.60;71.10;;;;;;21164703;28;20208;-72
2023/03/05 22:59:27;;;;;;;8.70;5.10;;;5.60;71.10;;;;;;21164208;28;20580;-75
2023/03/05 23:09:29;;;;;;;9.03;4.80;;;5.60;71.00;;;;;;21163579;28;20214;-76
2023/03/05 23:19:31;;;;;;;8.73;5.17;;;5.60;71.20;;;;;;21162866;28;20706;-73
2023/03/05 23:29:50;;;;;;;9.73;5.40;;;5.60;71.20;;;;;;21163133;28;20216;-71
2023/03/05 23:39:52;;;;;;;10.53;5.60;;;5.60;71.40;;;;;;21162397;28;20701;-71
2023/03/05 23:49:53;;;;;;;9.87;5.73;;;5.60;71.50;;;;;;21162088;28;20206;-72
2023/03/05 23:59:55;;;;;;;9.93;5.60;;;5.60;71.60;;;;;;21161828;28;20244;-72
